sensor_id;sensor_type;location;lat;lon;timestamp;temperature;humidity
9915;DHT22;4996;48.746;9.174;2023-05-10T00:00:11;15.30;99.90
9915;DHT22;4996;48.746;9.174;2023-05-10T00:02:37;15.40;99.90
9915;DHT22;4996;48.746;9.174;2023-05-10T00:05:04;15.40;99.90
9915;DHT22;4996;48.746;9.174;2023-05-10T00:07:30;15.40;99.90
9915;DHT22;4996;48.746;9.174;2023-05-10T00:09:55;15.40;99.90
9915;DHT22;4996;48.746;9.174;2023-05-10T00:12:21;15.50;99.90
9915;DHT22;4996;48.746;9.174;2023-05-10T00:14:46;15.60;99.90
9915;DHT22;4996;48.746;9.174;2023-05-10T00:17:12;15.40;99.90
9915;DHT22;4996;48.746;9.174;2023-05-10T00:19:37;15.50;99.90
9915;DHT22;4996;48.746;9.174;2023-05-10T00:22:03;15.50;99.90
9915;DHT22;4996;48.746;9.174;2023-05-10T00:24:28;15.30;99.90
9915;DHT22;4996;48.746;9.174;2023-05-10T00:26:54;15.30;99.90
9915;DHT22;4996;48.746;9.174;2023-05-10T00:29:19;15.30;99.90
9915;DHT22;4996;48.746;9.174;2023-05-10T00:31:45;15.10;99.90
9915;DHT22;4996;48.746;9.174;2023-05-10T00:34:10;15.10;99.90
9915;DHT22;4996;48.746;9.174;2023-05-10T00:36:36;15.20;99.90
9915;DHT22;4996;48.746;9.174;2023-05-10T00:39:02;15.10;99.90
9915;DHT22;4996;48.746;9.174;2023-05-10T00:41:29;14.80;99.90
9915;DHT22;4996;48.746;9.174;2023-05-10T00:43:54;14.60;99.90
9915;DHT22;4996;48.746;9.174;2023-05-10T00:46:20;14.70;99.90
9915;DHT22;4996;48.746;9.174;2023-05-10T00:48:46;14.60;99.90
9915;DHT22;4996;48.746;9.174;2023-05-10T00:51:13;14.70;99.90
9915;DHT22;4996;48.746;9.174;2023-05-10T00:53:39;14.80;99.90
9915;DHT22;4996;48.746;9.174;2023-05-10T00:56:04;14.70;99.90
9915;DHT22;4996;48.746;9.174;2023-05-10T00:58:31;14.60;99.90
9915;DHT22;4996;48.746;9.174;2023-05-10T01:00:57;14.60;99.90
9915;DHT22;4996;48.746;9.174;2023-05-10T01:03:24;14.60;99.90
9915;DHT22;4996;48.746;9.174;2023-05-10T01:05:50;14.50;99.90
9915;DHT22;4996;48.746;9.174;2023-05-10T01:08:15;14.50;99.90
9915;DHT22;4996;48.746;9.174;2023-05-10T01:10:42;14.40;99.90
9915;DHT22;4996;48.746;9.174;2023-05-10T01:13:08;14.40;99.90
9915;DHT22;4996;48.746;9.174;2023-05-10T01:15:34;14.40;99.90
9915;DHT22;4996;48.746;9.174;2023-05-10T01:18:00;14.30;99.90
9915;DHT22;4996;48.746;9.174;2023-05-10T01:20:28;14.40;99.90
9915;DHT22;4996;48.746;9.174;2023-05-10T01:23:12;14.40;99.90
9915;DHT22;4996;48.746;9.174;2023-05-10T01:34:29;14.40;99.90
9915;DHT22;4996;48.746;9.174;2023-05-10T01:36:58;14.40;99.90
9915;DHT22;4996;48.746;9.174;2023-05-10T01:42:30;14.40;99.90
9915;DHT22;4996;48.746;9.174;2023-05-10T01:45:07;14.40;99.90
9915;DHT22;4996;48.746;9.174;2023-05-10T01:48:06;14.40;99.90
9915;DHT22;4996;48.746;9.174;2023-05-10T01:50:34;14.40;99.90
9915;DHT22;4996;48.746;9.174;2023-05-10T01:53:01;14.40;99.90
9915;DHT22;4996;48.746;9.174;2023-05-10T01:55:34;14.50;99.90
9915;DHT22;4996;48.746;9.174;2023-05-10T01:58:07;14.40;99.90
9915;DHT22;4996;48.746;9.174;2023-05-10T02:00:35;14.30;99.90
9915;DHT22;4996;48.746;9.174;2023-05-10T02:03:05;14.40;99.90
9915;DHT22;4996;48.746;9.174;2023-05-10T02:05:32;14.40;99.90
9915;DHT22;4996;48.746;9.174;2023-05-10T02:07:59;14.40;99.90
9915;DHT22;4996;48.746;9.174;2023-05-10T02:10:26;14.50;99.90
9915;DHT22;4996;48.746;9.174;2023-05-10T02:12:53;14.50;99.90
9915;DHT22;4996;48.746;9.174;2023-05-10T02:15:22;14.50;99.90
9915;DHT22;4996;48.746;9.174;2023-05-10T02:17:49;14.40;99.90
9915;DHT22;4996;48.746;9.174;2023-05-10T02:20:16;14.50;99.90
9915;DHT22;4996;48.746;9.174;2023-05-10T02:22:44;14.50;99.90
9915;DHT22;4996;48.746;9.174;2023-05-10T02:25:11;14.50;99.90
9915;DHT22;4996;48.746;9.174;2023-05-10T02:27:38;14.50;99.90
9915;DHT22;4996;48.746;9.174;2023-05-10T02:30:07;14.50;99.90
9915;DHT22;4996;48.746;9.174;2023-05-10T02:32:34;14.50;99.90
9915;DHT22;4996;48.746;9.174;2023-05-10T02:35:01;14.50;99.90
9915;DHT22;4996;48.746;9.174;2023-05-10T02:37:28;14.50;99.90
9915;DHT22;4996;48.746;9.174;2023-05-10T02:39:55;14.50;99.90
9915;DHT22;4996;48.746;9.174;2023-05-10T02:42:26;14.60;99.90
9915;DHT22;4996;48.746;9.174;2023-05-10T02:44:56;14.60;99.90
9915;DHT22;4996;48.746;9.174;2023-05-10T02:47:22;14.60;99.90
9915;DHT22;4996;48.746;9.174;2023-05-10T02:49:48;14.70;99.90
9915;DHT22;4996;48.746;9.174;2023-05-10T02:52:17;14.70;99.90
9915;DHT22;4996;48.746;9.174;2023-05-10T02:54:45;14.70;99.90
9915;DHT22;4996;48.746;9.174;2023-05-10T02:57:33;14.70;99.90
9915;DHT22;4996;48.746;9.174;2023-05-10T02:59:59;14.70;99.90
9915;DHT22;4996;48.746;9.174;2023-05-10T03:02:26;14.70;99.90
9915;DHT22;4996;48.746;9.174;2023-05-10T03:04:51;14.60;99.90
9915;DHT22;4996;48.746;9.174;2023-05-10T03:07:17;14.70;99.90
9915;DHT22;4996;48.746;9.174;2023-05-10T03:09:47;14.70;99.90
9915;DHT22;4996;48.746;9.174;2023-05-10T03:15:11;14.70;99.90
9915;DHT22;4996;48.746;9.174;2023-05-10T03:20:11;14.70;99.90
9915;DHT22;4996;48.746;9.174;2023-05-10T03:22:42;14.50;99.90
9915;DHT22;4996;48.746;9.174;2023-05-10T03:25:11;14.60;99.90
9915;DHT22;4996;48.746;9.174;2023-05-10T03:27:39;14.40;99.90
9915;DHT22;4996;48.746;9.174;2023-05-10T03:30:07;14.40;99.90
9915;DHT22;4996;48.746;9.174;2023-05-10T03:32:33;14.40;99.90
9915;DHT22;4996;48.746;9.174;2023-05-10T03:35:00;14.40;99.90
9915;DHT22;4996;48.746;9.174;2023-05-10T03:37:25;14.40;99.90
9915;DHT22;4996;48.746;9.174;2023-05-10T03:39:51;14.40;99.90
9915;DHT22;4996;48.746;9.174;2023-05-10T03:42:16;14.40;99.90
9915;DHT22;4996;48.746;9.174;2023-05-10T03:44:43;14.40;99.90
9915;DHT22;4996;48.746;9.174;2023-05-10T03:47:08;14.40;99.90
9915;DHT22;4996;48.746;9.174;2023-05-10T03:49:34;14.40;99.90
9915;DHT22;4996;48.746;9.174;2023-05-10T03:51:59;14.30;99.90
9915;DHT22;4996;48.746;9.174;2023-05-10T03:54:25;14.30;99.90
9915;DHT22;4996;48.746;9.174;2023-05-10T03:56:52;14.40;99.90
9915;DHT22;4996;48.746;9.174;2023-05-10T03:59:17;14.50;99.90
9915;DHT22;4996;48.746;9.174;2023-05-10T04:01:43;14.50;99.90
9915;DHT22;4996;48.746;9.174;2023-05-10T04:04:08;14.40;99.90
9915;DHT22;4996;48.746;9.174;2023-05-10T04:06:34;14.50;99.90
9915;DHT22;4996;48.746;9.174;2023-05-10T04:08:59;14.50;99.90
9915;DHT22;4996;48.746;9.174;2023-05-10T04:11:29;14.50;99.90
9915;DHT22;4996;48.746;9.174;2023-05-10T04:13:54;14.40;99.90
9915;DHT22;4996;48.746;9.174;2023-05-10T04:16:20;14.30;99.90
9915;DHT22;4996;48.746;9.174;2023-05-10T04:18:45;14.30;99.90
9915;DHT22;4996;48.746;9.174;2023-05-10T04:21:14;14.30;99.90
9915;DHT22;4996;48.746;9.174;2023-05-10T04:23:40;14.20;99.90
9915;DHT22;4996;48.746;9.174;2023-05-10T04:26:06;14.30;99.90
9915;DHT22;4996;48.746;9.174;2023-05-10T04:28:31;14.30;99.90
9915;DHT22;4996;48.746;9.174;2023-05-10T04:31:01;14.40;99.90
9915;DHT22;4996;48.746;9.174;2023-05-10T04:33:27;14.40;99.90
9915;DHT22;4996;48.746;9.174;2023-05-10T04:35:53;14.30;99.90
9915;DHT22;4996;48.746;9.174;2023-05-10T04:38:18;14.30;99.90
9915;DHT22;4996;48.746;9.174;2023-05-10T04:40:44;14.30;99.90
9915;DHT22;4996;48.746;9.174;2023-05-10T04:43:09;14.40;99.90
9915;DHT22;4996;48.746;9.174;2023-05-10T04:45:35;14.40;99.90
9915;DHT22;4996;48.746;9.174;2023-05-10T04:48:00;14.40;99.90
9915;DHT22;4996;48.746;9.174;2023-05-10T04:50:26;14.50;99.90
9915;DHT22;4996;48.746;9.174;2023-05-10T04:52:51;14.40;99.90
9915;DHT22;4996;48.746;9.174;2023-05-10T04:55:17;14.50;99.90
9915;DHT22;4996;48.746;9.174;2023-05-10T04:57:42;14.60;99.90
9915;DHT22;4996;48.746;9.174;2023-05-10T05:00:08;14.50;99.90
9915;DHT22;4996;48.746;9.174;2023-05-10T05:02:34;14.50;99.90
9915;DHT22;4996;48.746;9.174;2023-05-10T05:04:59;14.60;99.90
9915;DHT22;4996;48.746;9.174;2023-05-10T05:07:25;14.60;99.90
9915;DHT22;4996;48.746;9.174;2023-05-10T05:09:51;14.60;99.90
9915;DHT22;4996;48.746;9.174;2023-05-10T05:12:16;14.80;99.90
9915;DHT22;4996;48.746;9.174;2023-05-10T05:14:42;14.70;99.90
9915;DHT22;4996;48.746;9.174;2023-05-10T05:17:07;14.80;99.90
9915;DHT22;4996;48.746;9.174;2023-05-10T05:19:33;14.90;99.90
9915;DHT22;4996;48.746;9.174;2023-05-10T05:21:58;15.00;99.90
9915;DHT22;4996;48.746;9.174;2023-05-10T05:24:24;15.00;99.90
9915;DHT22;4996;48.746;9.174;2023-05-10T05:26:49;15.10;99.90
9915;DHT22;4996;48.746;9.174;2023-05-10T05:29:15;15.00;99.90
9915;DHT22;4996;48.746;9.174;2023-05-10T05:31:41;15.10;99.90
9915;DHT22;4996;48.746;9.174;2023-05-10T05:34:06;15.10;99.90
9915;DHT22;4996;48.746;9.174;2023-05-10T05:36:32;15.20;99.90
9915;DHT22;4996;48.746;9.174;2023-05-10T05:38:58;15.20;99.90
9915;DHT22;4996;48.746;9.174;2023-05-10T05:41:23;15.30;99.90
9915;DHT22;4996;48.746;9.174;2023-05-10T05:43:49;15.30;99.90
9915;DHT22;4996;48.746;9.174;2023-05-10T05:46:15;15.40;99.90
9915;DHT22;4996;48.746;9.174;2023-05-10T05:48:40;15.50;99.90
9915;DHT22;4996;48.746;9.174;2023-05-10T05:51:06;15.30;99.90
9915;DHT22;4996;48.746;9.174;2023-05-10T05:53:31;15.30;99.90
9915;DHT22;4996;48.746;9.174;2023-05-10T05:55:58;15.20;99.90
9915;DHT22;4996;48.746;9.174;2023-05-10T05:58:24;15.20;99.90
9915;DHT22;4996;48.746;9.174;2023-05-10T06:00:51;15.10;99.90
9915;DHT22;4996;48.746;9.174;2023-05-10T06:03:17;15.20;99.90
9915;DHT22;4996;48.746;9.174;2023-05-10T06:05:43;15.30;99.90
9915;DHT22;4996;48.746;9.174;2023-05-10T06:08:09;15.10;99.90
9915;DHT22;4996;48.746;9.174;2023-05-10T06:10:35;15.10;99.90
9915;DHT22;4996;48.746;9.174;2023-05-10T06:13:00;15.10;99.90
9915;DHT22;4996;48.746;9.174;2023-05-10T06:15:26;15.20;99.90
9915;DHT22;4996;48.746;9.174;2023-05-10T06:17:52;15.00;99.90
9915;DHT22;4996;48.746;9.174;2023-05-10T06:20:18;15.10;99.90
9915;DHT22;4996;48.746;9.174;2023-05-10T06:22:43;15.20;99.90
9915;DHT22;4996;48.746;9.174;2023-05-10T06:25:09;15.30;99.90
9915;DHT22;4996;48.746;9.174;2023-05-10T06:27:35;15.30;99.90
9915;DHT22;4996;48.746;9.174;2023-05-10T06:30:00;15.30;99.90
9915;DHT22;4996;48.746;9.174;2023-05-10T06:32:26;15.40;99.90
9915;DHT22;4996;48.746;9.174;2023-05-10T06:34:51;15.40;99.90
9915;DHT22;4996;48.746;9.174;2023-05-10T06:37:17;15.30;99.90
9915;DHT22;4996;48.746;9.174;2023-05-10T06:39:43;15.20;99.90
9915;DHT22;4996;48.746;9.174;2023-05-10T06:42:08;15.20;99.90
9915;DHT22;4996;48.746;9.174;2023-05-10T06:44:34;15.30;99.90
9915;DHT22;4996;48.746;9.174;2023-05-10T06:46:59;15.40;99.90
9915;DHT22;4996;48.746;9.174;2023-05-10T06:49:25;15.40;99.90
9915;DHT22;4996;48.746;9.174;2023-05-10T06:51:50;15.40;99.90
9915;DHT22;4996;48.746;9.174;2023-05-10T06:54:16;15.40;99.90
9915;DHT22;4996;48.746;9.174;2023-05-10T06:56:41;15.40;99.90
9915;DHT22;4996;48.746;9.174;2023-05-10T06:59:07;15.50;99.90
9915;DHT22;4996;48.746;9.174;2023-05-10T07:01:32;15.40;99.90
9915;DHT22;4996;48.746;9.174;2023-05-10T07:03:58;15.40;99.90
9915;DHT22;4996;48.746;9.174;2023-05-10T07:06:23;15.40;99.90
9915;DHT22;4996;48.746;9.174;2023-05-10T07:08:49;15.30;99.90
9915;DHT22;4996;48.746;9.174;2023-05-10T07:11:14;15.40;99.90
9915;DHT22;4996;48.746;9.174;2023-05-10T07:13:40;15.30;99.90
9915;DHT22;4996;48.746;9.174;2023-05-10T07:16:09;15.30;99.90
9915;DHT22;4996;48.746;9.174;2023-05-10T07:18:35;15.30;99.90
9915;DHT22;4996;48.746;9.174;2023-05-10T07:21:00;15.50;99.90
9915;DHT22;4996;48.746;9.174;2023-05-10T07:23:27;15.70;99.90
9915;DHT22;4996;48.746;9.174;2023-05-10T07:25:52;15.90;99.90
9915;DHT22;4996;48.746;9.174;2023-05-10T07:28:19;16.20;99.90
9915;DHT22;4996;48.746;9.174;2023-05-10T07:30:44;16.20;99.90
9915;DHT22;4996;48.746;9.174;2023-05-10T07:33:12;16.10;99.90
9915;DHT22;4996;48.746;9.174;2023-05-10T07:35:38;16.20;99.90
9915;DHT22;4996;48.746;9.174;2023-05-10T07:38:03;16.10;99.90
9915;DHT22;4996;48.746;9.174;2023-05-10T07:40:29;16.10;99.90
9915;DHT22;4996;48.746;9.174;2023-05-10T07:42:55;16.30;99.90
9915;DHT22;4996;48.746;9.174;2023-05-10T07:45:22;16.20;99.90
9915;DHT22;4996;48.746;9.174;2023-05-10T07:47:48;16.20;99.90
9915;DHT22;4996;48.746;9.174;2023-05-10T07:50:14;16.10;99.90
9915;DHT22;4996;48.746;9.174;2023-05-10T07:52:39;16.20;99.90
9915;DHT22;4996;48.746;9.174;2023-05-10T07:55:05;16.30;99.90
9915;DHT22;4996;48.746;9.174;2023-05-10T07:57:33;16.30;99.90
9915;DHT22;4996;48.746;9.174;2023-05-10T07:59:58;16.30;99.90
9915;DHT22;4996;48.746;9.174;2023-05-10T08:02:24;16.10;99.90
9915;DHT22;4996;48.746;9.174;2023-05-10T08:04:49;16.10;99.90
9915;DHT22;4996;48.746;9.174;2023-05-10T08:07:15;16.20;99.90
9915;DHT22;4996;48.746;9.174;2023-05-10T08:09:40;16.20;99.90
9915;DHT22;4996;48.746;9.174;2023-05-10T08:12:06;16.20;99.90
9915;DHT22;4996;48.746;9.174;2023-05-10T08:14:31;16.30;99.90
9915;DHT22;4996;48.746;9.174;2023-05-10T08:16:57;16.20;99.90
9915;DHT22;4996;48.746;9.174;2023-05-10T08:19:23;16.40;99.90
9915;DHT22;4996;48.746;9.174;2023-05-10T08:21:49;16.40;99.90
9915;DHT22;4996;48.746;9.174;2023-05-10T08:24:14;16.50;99.90
9915;DHT22;4996;48.746;9.174;2023-05-10T08:26:40;16.70;99.90
9915;DHT22;4996;48.746;9.174;2023-05-10T08:29:05;16.70;99.90
9915;DHT22;4996;48.746;9.174;2023-05-10T08:31:31;16.50;99.90
9915;DHT22;4996;48.746;9.174;2023-05-10T08:33:57;16.40;99.90
9915;DHT22;4996;48.746;9.174;2023-05-10T08:36:22;16.40;99.90
9915;DHT22;4996;48.746;9.174;2023-05-10T08:38:52;16.60;99.90
9915;DHT22;4996;48.746;9.174;2023-05-10T08:41:19;16.70;99.90
9915;DHT22;4996;48.746;9.174;2023-05-10T08:43:46;16.80;99.90
9915;DHT22;4996;48.746;9.174;2023-05-10T08:46:15;17.00;99.90
9915;DHT22;4996;48.746;9.174;2023-05-10T08:48:45;17.00;99.90
9915;DHT22;4996;48.746;9.174;2023-05-10T08:51:14;17.00;99.90
9915;DHT22;4996;48.746;9.174;2023-05-10T08:53:40;17.10;99.90
9915;DHT22;4996;48.746;9.174;2023-05-10T08:56:06;16.60;99.90
9915;DHT22;4996;48.746;9.174;2023-05-10T08:58:32;16.70;99.90
9915;DHT22;4996;48.746;9.174;2023-05-10T09:00:58;16.90;99.90
9915;DHT22;4996;48.746;9.174;2023-05-10T09:03:24;16.80;99.90
9915;DHT22;4996;48.746;9.174;2023-05-10T09:05:50;16.80;99.90
9915;DHT22;4996;48.746;9.174;2023-05-10T09:08:16;16.90;99.90
9915;DHT22;4996;48.746;9.174;2023-05-10T09:10:43;17.00;99.90
9915;DHT22;4996;48.746;9.174;2023-05-10T09:13:10;17.10;99.90
9915;DHT22;4996;48.746;9.174;2023-05-10T09:15:37;17.20;99.90
9915;DHT22;4996;48.746;9.174;2023-05-10T09:18:02;17.30;99.90
9915;DHT22;4996;48.746;9.174;2023-05-10T09:20:28;17.00;99.90
9915;DHT22;4996;48.746;9.174;2023-05-10T09:22:53;16.90;99.90
9915;DHT22;4996;48.746;9.174;2023-05-10T09:25:19;16.80;99.90
9915;DHT22;4996;48.746;9.174;2023-05-10T09:27:46;16.80;99.90
9915;DHT22;4996;48.746;9.174;2023-05-10T09:30:27;16.60;99.90
9915;DHT22;4996;48.746;9.174;2023-05-10T09:32:53;16.60;99.90
9915;DHT22;4996;48.746;9.174;2023-05-10T09:35:21;16.50;99.90
9915;DHT22;4996;48.746;9.174;2023-05-10T09:37:50;16.50;99.90
9915;DHT22;4996;48.746;9.174;2023-05-10T09:40:18;16.40;99.90
9915;DHT22;4996;48.746;9.174;2023-05-10T09:43:01;16.40;99.90
9915;DHT22;4996;48.746;9.174;2023-05-10T09:45:31;16.50;99.90
9915;DHT22;4996;48.746;9.174;2023-05-10T09:47:58;16.40;99.90
9915;DHT22;4996;48.746;9.174;2023-05-10T09:50:25;16.50;99.90
9915;DHT22;4996;48.746;9.174;2023-05-10T09:52:51;16.50;99.90
9915;DHT22;4996;48.746;9.174;2023-05-10T09:55:21;16.80;99.90
9915;DHT22;4996;48.746;9.174;2023-05-10T09:57:48;16.90;99.90
9915;DHT22;4996;48.746;9.174;2023-05-10T10:00:20;17.10;99.90
9915;DHT22;4996;48.746;9.174;2023-05-10T10:02:47;17.10;99.90
9915;DHT22;4996;48.746;9.174;2023-05-10T10:05:13;17.40;99.90
9915;DHT22;4996;48.746;9.174;2023-05-10T10:07:39;17.50;99.90
9915;DHT22;4996;48.746;9.174;2023-05-10T10:10:05;17.50;99.90
9915;DHT22;4996;48.746;9.174;2023-05-10T10:12:36;17.60;99.90
9915;DHT22;4996;48.746;9.174;2023-05-10T10:15:03;18.10;99.90
9915;DHT22;4996;48.746;9.174;2023-05-10T10:17:30;17.80;99.90
9915;DHT22;4996;48.746;9.174;2023-05-10T10:19:57;17.90;99.90
9915;DHT22;4996;48.746;9.174;2023-05-10T10:22:23;17.70;99.90
9915;DHT22;4996;48.746;9.174;2023-05-10T10:24:50;18.00;99.90
9915;DHT22;4996;48.746;9.174;2023-05-10T10:27:28;18.20;99.90
9915;DHT22;4996;48.746;9.174;2023-05-10T10:30:29;18.20;99.90
9915;DHT22;4996;48.746;9.174;2023-05-10T10:35:38;17.90;99.90
9915;DHT22;4996;48.746;9.174;2023-05-10T10:38:04;17.70;99.90
9915;DHT22;4996;48.746;9.174;2023-05-10T10:40:33;17.30;99.90
9915;DHT22;4996;48.746;9.174;2023-05-10T10:43:25;17.50;99.90
9915;DHT22;4996;48.746;9.174;2023-05-10T10:46:12;17.70;99.90
9915;DHT22;4996;48.746;9.174;2023-05-10T10:48:38;17.90;99.90
9915;DHT22;4996;48.746;9.174;2023-05-10T10:51:04;18.20;99.90
9915;DHT22;4996;48.746;9.174;2023-05-10T10:53:30;18.30;99.90
9915;DHT22;4996;48.746;9.174;2023-05-10T10:56:09;18.40;99.90
9915;DHT22;4996;48.746;9.174;2023-05-10T10:58:37;18.40;99.90
9915;DHT22;4996;48.746;9.174;2023-05-10T11:01:14;18.10;99.90
9915;DHT22;4996;48.746;9.174;2023-05-10T11:03:41;17.50;99.90
9915;DHT22;4996;48.746;9.174;2023-05-10T11:06:31;17.20;99.90
9915;DHT22;4996;48.746;9.174;2023-05-10T11:08:58;16.90;99.90
9915;DHT22;4996;48.746;9.174;2023-05-10T11:11:23;16.20;99.90
9915;DHT22;4996;48.746;9.174;2023-05-10T11:13:50;15.90;99.90
9915;DHT22;4996;48.746;9.174;2023-05-10T11:16:21;16.00;99.90
9915;DHT22;4996;48.746;9.174;2023-05-10T11:19:09;16.10;99.90
9915;DHT22;4996;48.746;9.174;2023-05-10T11:21:49;16.30;99.90
9915;DHT22;4996;48.746;9.174;2023-05-10T11:24:17;16.20;99.90
9915;DHT22;4996;48.746;9.174;2023-05-10T11:26:43;16.40;99.90
9915;DHT22;4996;48.746;9.174;2023-05-10T11:29:08;16.60;99.90
9915;DHT22;4996;48.746;9.174;2023-05-10T11:31:34;16.50;99.90
9915;DHT22;4996;48.746;9.174;2023-05-10T11:34:00;16.70;99.90
9915;DHT22;4996;48.746;9.174;2023-05-10T11:36:33;17.00;99.90
9915;DHT22;4996;48.746;9.174;2023-05-10T11:38:59;17.00;99.90
9915;DHT22;4996;48.746;9.174;2023-05-10T11:41:27;16.90;99.90
9915;DHT22;4996;48.746;9.174;2023-05-10T11:43:54;16.90;99.90
9915;DHT22;4996;48.746;9.174;2023-05-10T11:46:23;16.60;99.90
9915;DHT22;4996;48.746;9.174;2023-05-10T11:48:50;16.50;99.90
9915;DHT22;4996;48.746;9.174;2023-05-10T11:51:20;16.30;99.90
9915;DHT22;4996;48.746;9.174;2023-05-10T11:53:46;16.10;99.90
9915;DHT22;4996;48.746;9.174;2023-05-10T11:56:11;16.20;99.90
9915;DHT22;4996;48.746;9.174;2023-05-10T11:58:38;16.00;99.90
9915;DHT22;4996;48.746;9.174;2023-05-10T12:01:05;16.10;99.90
9915;DHT22;4996;48.746;9.174;2023-05-10T12:03:31;16.30;99.90
9915;DHT22;4996;48.746;9.174;2023-05-10T12:05:58;16.30;99.90
9915;DHT22;4996;48.746;9.174;2023-05-10T12:08:28;16.50;99.90
9915;DHT22;4996;48.746;9.174;2023-05-10T12:11:07;16.50;99.90
9915;DHT22;4996;48.746;9.174;2023-05-10T12:13:41;16.50;99.90
9915;DHT22;4996;48.746;9.174;2023-05-10T12:16:17;16.40;99.90
9915;DHT22;4996;48.746;9.174;2023-05-10T12:18:43;16.60;99.90
9915;DHT22;4996;48.746;9.174;2023-05-10T12:21:10;16.70;99.90
9915;DHT22;4996;48.746;9.174;2023-05-10T12:23:37;16.80;99.90
9915;DHT22;4996;48.746;9.174;2023-05-10T12:26:03;17.00;99.90
9915;DHT22;4996;48.746;9.174;2023-05-10T12:28:32;17.20;99.90
9915;DHT22;4996;48.746;9.174;2023-05-10T12:30:59;17.00;99.90
9915;DHT22;4996;48.746;9.174;2023-05-10T12:33:25;17.30;99.90
9915;DHT22;4996;48.746;9.174;2023-05-10T12:35:52;17.30;99.90
9915;DHT22;4996;48.746;9.174;2023-05-10T12:41:04;17.20;99.90
9915;DHT22;4996;48.746;9.174;2023-05-10T12:43:31;17.20;99.90
9915;DHT22;4996;48.746;9.174;2023-05-10T12:45:57;17.00;99.90
9915;DHT22;4996;48.746;9.174;2023-05-10T12:48:22;17.10;99.90
9915;DHT22;4996;48.746;9.174;2023-05-10T12:50:48;17.00;99.90
9915;DHT22;4996;48.746;9.174;2023-05-10T12:53:14;17.00;99.90
9915;DHT22;4996;48.746;9.174;2023-05-10T12:55:43;16.80;99.90
9915;DHT22;4996;48.746;9.174;2023-05-10T12:58:09;16.80;99.90
9915;DHT22;4996;48.746;9.174;2023-05-10T13:00:35;16.80;99.90
9915;DHT22;4996;48.746;9.174;2023-05-10T13:03:03;16.60;99.90
9915;DHT22;4996;48.746;9.174;2023-05-10T13:05:31;16.60;99.90
9915;DHT22;4996;48.746;9.174;2023-05-10T13:07:56;16.60;99.90
9915;DHT22;4996;48.746;9.174;2023-05-10T13:10:22;16.60;99.90
9915;DHT22;4996;48.746;9.174;2023-05-10T13:12:49;16.70;99.90
9915;DHT22;4996;48.746;9.174;2023-05-10T13:15:14;16.70;99.90
9915;DHT22;4996;48.746;9.174;2023-05-10T13:17:40;16.90;99.90
9915;DHT22;4996;48.746;9.174;2023-05-10T13:20:06;17.00;99.90
9915;DHT22;4996;48.746;9.174;2023-05-10T13:22:32;17.10;99.90
9915;DHT22;4996;48.746;9.174;2023-05-10T13:24:57;17.20;99.90
9915;DHT22;4996;48.746;9.174;2023-05-10T13:27:23;17.30;99.90
9915;DHT22;4996;48.746;9.174;2023-05-10T13:29:48;17.50;99.90
9915;DHT22;4996;48.746;9.174;2023-05-10T13:32:14;17.40;99.90
9915;DHT22;4996;48.746;9.174;2023-05-10T13:34:39;17.40;99.90
9915;DHT22;4996;48.746;9.174;2023-05-10T13:37:05;17.70;99.90
9915;DHT22;4996;48.746;9.174;2023-05-10T13:39:31;17.80;99.90
9915;DHT22;4996;48.746;9.174;2023-05-10T13:41:59;17.90;99.90
9915;DHT22;4996;48.746;9.174;2023-05-10T13:44:25;18.00;99.90
9915;DHT22;4996;48.746;9.174;2023-05-10T13:46:51;17.90;99.90
9915;DHT22;4996;48.746;9.174;2023-05-10T13:49:16;17.90;99.90
9915;DHT22;4996;48.746;9.174;2023-05-10T13:51:43;17.90;99.90
9915;DHT22;4996;48.746;9.174;2023-05-10T13:54:08;17.90;99.90
9915;DHT22;4996;48.746;9.174;2023-05-10T13:56:34;18.10;99.90
9915;DHT22;4996;48.746;9.174;2023-05-10T13:59:00;18.00;99.90
9915;DHT22;4996;48.746;9.174;2023-05-10T14:01:25;18.10;99.90
9915;DHT22;4996;48.746;9.174;2023-05-10T14:03:51;18.20;99.90
9915;DHT22;4996;48.746;9.174;2023-05-10T14:06:16;18.30;99.90
9915;DHT22;4996;48.746;9.174;2023-05-10T14:08:42;18.00;99.90
9915;DHT22;4996;48.746;9.174;2023-05-10T14:11:08;18.10;99.90
9915;DHT22;4996;48.746;9.174;2023-05-10T14:13:34;17.90;99.90
9915;DHT22;4996;48.746;9.174;2023-05-10T14:15:59;18.00;99.90
9915;DHT22;4996;48.746;9.174;2023-05-10T14:18:26;18.10;99.90
9915;DHT22;4996;48.746;9.174;2023-05-10T14:20:52;18.10;99.90
9915;DHT22;4996;48.746;9.174;2023-05-10T14:23:17;17.90;99.90
9915;DHT22;4996;48.746;9.174;2023-05-10T14:25:44;18.00;99.90
9915;DHT22;4996;48.746;9.174;2023-05-10T14:28:10;18.20;99.90
9915;DHT22;4996;48.746;9.174;2023-05-10T14:30:36;18.20;99.90
9915;DHT22;4996;48.746;9.174;2023-05-10T14:36:11;18.30;99.90
9915;DHT22;4996;48.746;9.174;2023-05-10T14:38:37;18.30;99.90
9915;DHT22;4996;48.746;9.174;2023-05-10T14:41:02;18.40;99.90
9915;DHT22;4996;48.746;9.174;2023-05-10T14:43:28;18.30;99.90
9915;DHT22;4996;48.746;9.174;2023-05-10T14:45:53;18.30;99.90
9915;DHT22;4996;48.746;9.174;2023-05-10T14:48:19;18.20;99.90
9915;DHT22;4996;48.746;9.174;2023-05-10T14:50:46;18.30;99.90
9915;DHT22;4996;48.746;9.174;2023-05-10T14:53:12;18.40;99.90
9915;DHT22;4996;48.746;9.174;2023-05-10T14:55:37;18.50;99.90
9915;DHT22;4996;48.746;9.174;2023-05-10T14:58:03;18.60;99.90
9915;DHT22;4996;48.746;9.174;2023-05-10T15:00:29;18.50;99.90
9915;DHT22;4996;48.746;9.174;2023-05-10T15:02:55;18.50;99.90
9915;DHT22;4996;48.746;9.174;2023-05-10T15:05:20;18.40;99.90
9915;DHT22;4996;48.746;9.174;2023-05-10T15:07:46;18.30;99.90
9915;DHT22;4996;48.746;9.174;2023-05-10T15:10:11;18.30;99.90
9915;DHT22;4996;48.746;9.174;2023-05-10T15:12:37;18.30;99.90
9915;DHT22;4996;48.746;9.174;2023-05-10T15:15:04;18.30;99.90
9915;DHT22;4996;48.746;9.174;2023-05-10T15:17:30;18.30;99.90
9915;DHT22;4996;48.746;9.174;2023-05-10T15:19:55;18.30;99.90
9915;DHT22;4996;48.746;9.174;2023-05-10T15:22:21;18.20;99.90
9915;DHT22;4996;48.746;9.174;2023-05-10T15:24:47;18.30;99.90
9915;DHT22;4996;48.746;9.174;2023-05-10T15:27:12;18.30;99.90
9915;DHT22;4996;48.746;9.174;2023-05-10T15:29:38;18.30;99.90
9915;DHT22;4996;48.746;9.174;2023-05-10T15:32:03;18.50;99.90
9915;DHT22;4996;48.746;9.174;2023-05-10T15:34:29;18.40;99.90
9915;DHT22;4996;48.746;9.174;2023-05-10T15:36:54;18.40;99.90
9915;DHT22;4996;48.746;9.174;2023-05-10T15:39:20;18.40;99.90
9915;DHT22;4996;48.746;9.174;2023-05-10T15:41:45;18.30;99.90
9915;DHT22;4996;48.746;9.174;2023-05-10T15:44:12;18.40;99.90
9915;DHT22;4996;48.746;9.174;2023-05-10T15:46:37;18.40;99.90
9915;DHT22;4996;48.746;9.174;2023-05-10T15:49:03;18.40;99.90
9915;DHT22;4996;48.746;9.174;2023-05-10T15:51:29;18.20;99.90
9915;DHT22;4996;48.746;9.174;2023-05-10T15:53:54;18.20;99.90
9915;DHT22;4996;48.746;9.174;2023-05-10T15:56:21;18.30;99.90
9915;DHT22;4996;48.746;9.174;2023-05-10T15:58:47;18.20;99.90
9915;DHT22;4996;48.746;9.174;2023-05-10T16:01:12;18.30;99.90
9915;DHT22;4996;48.746;9.174;2023-05-10T16:03:39;18.40;99.90
9915;DHT22;4996;48.746;9.174;2023-05-10T16:06:05;18.50;99.90
9915;DHT22;4996;48.746;9.174;2023-05-10T16:08:30;18.40;99.90
9915;DHT22;4996;48.746;9.174;2023-05-10T16:10:58;18.40;99.90
9915;DHT22;4996;48.746;9.174;2023-05-10T16:13:23;18.40;99.90
9915;DHT22;4996;48.746;9.174;2023-05-10T16:15:49;18.30;99.90
9915;DHT22;4996;48.746;9.174;2023-05-10T16:18:14;18.40;99.90
9915;DHT22;4996;48.746;9.174;2023-05-10T16:20:42;18.30;99.90
9915;DHT22;4996;48.746;9.174;2023-05-10T16:23:08;18.30;99.90
9915;DHT22;4996;48.746;9.174;2023-05-10T16:25:34;18.30;99.90